Time;durP1;ratioP1;P1;durP2;ratioP2;P2;SDS_P1;SDS_P2;PMS_P1;PMS_P2;Temp;Humidity;BMP_temperature;BMP_pressure;BME280_temperature;BME280_humidity;BME280_pressure;Samples;Min_cycle;Max_cycle;Signal;HPM_P1;HPM_P2
2021/03/12 00:00:28;;;;;;;15.85;8.30;;;;;;;-2.62;64.10;99162.91;1794935;79;21304;-58
2021/03/12 00:02:58;;;;;;;14.68;8.63;;;;;;;-2.62;63.95;99145.61;1807020;78;21148;-58
2021/03/12 00:05:26;;;;;;;20.65;10.23;;;;;;;-2.64;63.93;99156.87;1794879;78;21156;-67
2021/03/12 00:07:54;;;;;;;17.57;8.68;;;;;;;-2.68;64.00;99117.41;1794652;80;21290;-53
2021/03/12 00:10:26;;;;;;;17.23;9.00;;;;;;;-2.70;64.09;99141.29;1793802;79;21277;-56
2021/03/12 00:12:54;;;;;;;;;;;;;;;-2.68;64.16;99076.99;1797457;80;21275;-55
2021/03/12 00:15:23;;;;;;;23.67;10.10;;;;;;;-2.70;64.12;99073.09;1788846;79;20122;-58
2021/03/12 00:17:51;;;;;;;20.65;9.90;;;;;;;-2.72;64.25;99130.59;1780861;80;21152;-57
2021/03/12 00:20:24;;;;;;;19.45;9.15;;;;;;;-2.68;64.11;99142.67;1780870;80;21326;-59
2021/03/12 00:22:52;;;;;;;23.57;9.33;;;;;;;-2.69;63.87;99091.67;1789441;79;21150;-58
2021/03/12 00:25:25;;;;;;;21.15;9.10;;;;;;;-2.70;63.87;99130.31;1799622;79;21297;-56
2021/03/12 00:27:53;;;;;;;18.92;9.80;;;;;;;-2.69;63.63;99127.91;1812867;79;21162;-59
2021/03/12 00:30:22;;;;;;;15.65;9.98;;;;;;;-2.68;63.63;99069.02;1805084;78;21261;-57
2021/03/12 00:32:50;;;;;;;23.77;10.48;;;;;;;-2.67;63.59;99100.20;1801706;79;21166;-55
2021/03/12 00:35:18;;;;;;;18.40;9.30;;;;;;;-2.73;63.88;99066.98;1812722;79;21290;-57
2021/03/12 00:37:46;;;;;;;18.92;10.48;;;;;;;-2.72;63.79;99086.40;1806071;79;21171;-52
2021/03/12 00:40:21;;;;;;;20.57;10.45;;;;;;;-2.71;63.69;99078.06;1797152;79;21171;-56
2021/03/12 00:42:49;;;;;;;23.15;9.30;;;;;;;-2.74;63.66;99080.40;1801390;79;21147;-60
2021/03/12 00:45:20;;;;;;;19.12;10.55;;;;;;;-2.72;63.72;99063.30;1812779;79;21326;-58
2021/03/12 00:47:50;;;;;;;19.12;9.78;;;;;;;-2.76;63.31;99012.49;1804774;78;21135;-53
2021/03/12 00:50:22;;;;;;;22.58;10.28;;;;;;;-2.75;63.39;99088.34;1795063;79;21336;-55
2021/03/12 00:52:50;;;;;;;;;;;;;;;-2.72;63.46;99075.03;1772171;80;21280;-57
2021/03/12 00:55:18;;;;;;;17.15;8.80;;;;;;;-2.75;63.39;99069.79;1780737;80;20407;-56
2021/03/12 00:57:48;;;;;;;21.15;8.85;;;;;;;-2.74;63.52;99079.14;1780654;79;21576;-57
2021/03/12 01:00:24;;;;;;;16.57;8.90;;;;;;;-2.76;63.19;99035.22;1789957;78;21195;-57
2021/03/12 01:02:53;;;;;;;21.00;9.45;;;;;;;-2.78;63.35;99019.09;1793604;78;21163;-55
2021/03/12 01:05:22;;;;;;;16.82;9.68;;;;;;;-2.77;63.24;98974.10;1799354;78;21261;-57
2021/03/12 01:07:50;;;;;;;19.95;9.65;;;;;;;-2.77;63.23;98997.73;1794826;79;21242;-55
2021/03/12 01:10:22;;;;;;;16.00;9.23;;;;;;;-2.73;63.02;99011.42;1795512;78;21695;-55
2021/03/12 01:12:51;;;;;;;14.20;7.70;;;;;;;-2.69;62.93;99052.52;1802974;79;21151;-54
2021/03/12 01:15:23;;;;;;;22.25;10.08;;;;;;;-2.73;62.92;99043.86;1806706;78;21382;-59
2021/03/12 01:17:53;;;;;;;17.07;8.73;;;;;;;-2.72;62.77;99029.56;1795473;78;21348;-55
2021/03/12 01:20:32;;;;;;;17.12;9.95;;;;;;;-2.70;62.50;99031.81;1793442;80;21340;-59
2021/03/12 01:23:02;;;;;;;20.43;10.55;;;;;;;-2.67;62.46;99013.05;1794189;79;21122;-55
2021/03/12 01:25:43;;;;;;;17.87;8.43;;;;;;;-2.66;62.23;99019.48;1794868;80;21130;-54
2021/03/12 01:28:11;;;;;;;19.92;10.00;;;;;;;-2.67;62.34;99049.69;1794905;80;21271;-59
2021/03/12 01:30:46;;;;;;;19.60;9.18;;;;;;;-2.61;62.40;99033.67;1794887;79;21134;-57
2021/03/12 01:33:22;;;;;;;16.50;9.45;;;;;;;-2.54;62.17;99050.98;1785279;79;21166;-55
2021/03/12 01:35:50;;;;;;;17.65;9.13;;;;;;;-2.51;61.92;99002.29;1803548;79;21166;-56
2021/03/12 01:38:18;;;;;;;19.40;9.95;;;;;;;-2.60;61.85;99009.28;1794710;78;21261;-58
2021/03/12 01:40:49;;;;;;;19.25;8.83;;;;;;;-2.66;62.11;99004.72;1794715;80;21677;-56
2021/03/12 01:43:18;;;;;;;15.93;8.90;;;;;;;-2.71;62.09;99017.45;1795018;79;21268;-54
2021/03/12 01:45:49;;;;;;;15.28;8.10;;;;;;;-2.73;62.09;99060.27;1803468;79;21165;-54
2021/03/12 01:48:24;;;;;;;16.85;8.40;;;;;;;-2.70;62.18;99015.39;1794730;79;21138;-56
2021/03/12 01:51:03;;;;;;;15.83;8.73;;;;;;;-2.71;62.12;99016.19;1794895;80;21156;-55
2021/03/12 01:53:34;;;;;;;21.23;8.88;;;;;;;-2.75;62.26;98982.27;1795010;78;21288;-58
2021/03/12 01:56:05;;;;;;;21.10;9.23;;;;;;;-2.73;62.39;98999.66;1803656;79;21142;-55
2021/03/12 01:58:35;;;;;;;16.75;8.45;;;;;;;-2.72;62.38;98920.60;1795339;79;21122;-54
2021/03/12 02:01:05;;;;;;;21.68;10.05;;;;;;;-2.72;61.86;98985.01;1794895;80;21158;-54
2021/03/12 02:03:42;;;;;;;15.35;8.20;;;;;;;-2.73;62.26;99009.76;1870691;76;22117;-58
2021/03/12 02:06:12;;;;;;;15.88;8.78;;;;;;;-2.86;62.79;98957.60;1826564;77;21632;-58
2021/03/12 02:08:42;;;;;;;19.92;8.85;;;;;;;-2.86;62.89;98984.51;1827940;78;21580;-54
2021/03/12 02:11:20;;;;;;;17.95;9.43;;;;;;;-2.88;63.11;98999.55;1826911;78;21592;-55
2021/03/12 02:13:58;;;;;;;18.90;8.38;;;;;;;-2.90;63.43;98977.14;1827975;78;21545;-54
2021/03/12 02:16:47;;;;;;;19.00;8.80;;;;;;;-2.85;63.17;98983.72;1827482;77;21134;-59
2021/03/12 02:19:54;;;;;;;21.27;8.65;;;;;;;-2.87;63.14;98948.29;1827839;78;21265;-54
2021/03/12 02:22:24;;;;;;;14.73;8.20;;;;;;;-2.87;63.31;98911.67;1827742;78;21138;-54
2021/03/12 02:24:58;;;;;;;20.52;8.88;;;;;;;-2.87;63.38;98943.64;1827957;78;21700;-54
2021/03/12 02:27:28;;;;;;;22.55;9.53;;;;;;;-2.94;63.74;98943.63;1825576;77;21115;-56
2021/03/12 02:29:59;;;;;;;21.42;10.70;;;;;;;-2.97;63.65;98943.44;1827741;78;21280;-56
2021/03/12 02:32:35;;;;;;;23.85;10.28;;;;;;;-3.03;63.85;98945.95;1826638;77;21138;-55
2021/03/12 02:35:20;;;;;;;15.60;7.90;;;;;;;-3.05;64.10;98931.98;1827623;78;21138;-55
2021/03/12 02:37:52;;;;;;;15.88;8.68;;;;;;;-3.10;64.29;98962.37;1827638;77;21553;-54
2021/03/12 02:40:22;;;;;;;18.15;8.70;;;;;;;-3.16;64.77;98967.00;1827708;77;21106;-55
2021/03/12 02:42:55;;;;;;;17.62;8.18;;;;;;;-3.16;64.80;98969.53;1827399;78;21280;-58
2021/03/12 02:45:23;;;;;;;15.00;8.50;;;;;;;-3.13;64.89;98975.66;1827544;77;21134;-55
2021/03/12 02:47:53;;;;;;;15.70;8.80;;;;;;;-3.08;64.71;98977.20;1826576;77;21098;-57
2021/03/12 02:50:24;;;;;;;19.27;9.48;;;;;;;-3.06;64.62;98960.51;1807896;77;21162;-54
2021/03/12 02:52:54;;;;;;;16.42;7.78;;;;;;;-3.11;64.76;98888.66;1807453;78;21134;-56
2021/03/12 02:55:24;;;;;;;16.57;9.28;;;;;;;-3.11;64.81;98979.14;1827745;78;21672;-55
2021/03/12 02:57:54;;;;;;;17.12;8.43;;;;;;;-3.15;64.97;98916.64;1827334;78;21600;-58
2021/03/12 03:00:23;;;;;;;19.50;8.98;;;;;;;-3.10;64.91;98952.27;1827535;78;21200;-57
2021/03/12 03:03:10;;;;;;;19.37;9.50;;;;;;;-3.12;64.75;98932.36;1807100;79;21142;-56
2021/03/12 03:05:58;;;;;;;19.87;9.88;;;;;;;-3.11;64.46;98836.92;1824606;79;21135;-57
2021/03/12 03:08:26;;;;;;;20.82;9.28;;;;;;;-3.17;64.52;98921.09;1804292;79;21142;-54
2021/03/12 03:11:00;;;;;;;19.23;9.23;;;;;;;-3.24;64.96;98918.95;1824460;78;21248;-54
2021/03/12 03:13:32;;;;;;;15.08;8.13;;;;;;;-3.25;64.91;98926.05;1804047;79;21293;-55
2021/03/12 03:16:02;;;;;;;14.98;8.20;;;;;;;-3.30;65.04;98930.40;1803262;79;21276;-58
2021/03/12 03:18:38;;;;;;;20.43;8.90;;;;;;;-3.39;65.21;98949.98;1823875;79;21138;-56
2021/03/12 03:21:08;;;;;;;19.35;8.53;;;;;;;-3.42;65.45;98897.20;1804400;79;21138;-59
2021/03/12 03:23:39;;;;;;;17.90;9.10;;;;;;;-3.48;65.43;98938.05;1823678;77;21157;-55
2021/03/12 03:26:07;;;;;;;16.80;8.73;;;;;;;-3.52;65.48;98889.02;1824266;79;21545;-57
2021/03/12 03:28:38;;;;;;;18.70;9.40;;;;;;;-3.48;65.60;98922.91;1823874;77;21672;-59
2021/03/12 03:31:06;;;;;;;22.58;8.53;;;;;;;-3.49;65.66;98873.22;1823827;77;21150;-61
2021/03/12 03:33:35;;;;;;;16.27;8.80;;;;;;;-3.51;65.81;98877.28;1823844;77;21107;-55
2021/03/12 03:36:08;;;;;;;20.52;8.85;;;;;;;-3.47;65.72;98892.25;1823695;77;21118;-60
2021/03/12 03:38:36;;;;;;;15.83;8.50;;;;;;;-3.47;65.63;98826.27;1823754;78;21143;-53
2021/03/12 03:41:08;;;;;;;16.30;8.65;;;;;;;-3.37;65.10;98860.52;1823990;79;21288;-57
2021/03/12 03:43:41;;;;;;;16.62;9.43;;;;;;;-3.42;64.95;98898.06;1823676;79;21118;-53
2021/03/12 03:46:12;;;;;;;20.77;7.92;;;;;;;-3.48;65.14;98843.84;1823351;78;21703;-58
2021/03/12 03:48:43;;;;;;;17.82;8.48;;;;;;;-3.53;65.59;98858.67;1823907;77;21127;-55
2021/03/12 03:51:15;;;;;;;21.87;9.25;;;;;;;-3.55;65.62;98856.44;1823590;78;21569;-60
2021/03/12 03:53:44;;;;;;;;;;;;;;;-3.54;65.85;98821.59;1826419;77;21154;-59
2021/03/12 03:56:16;;;;;;;20.45;9.75;;;;;;;-3.54;65.81;98779.98;1823747;79;20130;-57
2021/03/12 03:58:47;;;;;;;18.70;9.50;;;;;;;-3.53;65.86;98857.02;1823924;79;21565;-56
2021/03/12 04:01:17;;;;;;;21.02;9.73;;;;;;;-3.53;65.89;98861.20;1823824;77;21157;-58
2021/03/12 04:03:49;;;;;;;23.83;9.23;;;;;;;-3.57;65.62;98875.64;1814706;78;21138;-56
2021/03/12 04:06:18;;;;;;;24.75;10.35;;;;;;;-3.60;65.80;98862.84;1812826;78;21091;-53
2021/03/12 04:08:47;;;;;;;17.45;9.15;;;;;;;-3.60;65.55;98903.19;1812820;79;21281;-56
2021/03/12 04:11:17;;;;;;;16.27;8.43;;;;;;;-3.64;66.01;98834.00;1813097;79;21115;-56
2021/03/12 04:13:48;;;;;;;16.87;9.85;;;;;;;-3.65;66.23;98889.41;1801930;79;21565;-55
2021/03/12 04:16:19;;;;;;;15.72;9.28;;;;;;;-3.71;66.20;98883.19;1813289;79;21671;-53
2021/03/12 04:18:48;;;;;;;18.35;9.45;;;;;;;-3.71;66.33;98888.63;1801748;79;21135;-57
2021/03/12 04:21:17;;;;;;;14.60;8.35;;;;;;;-3.71;66.36;98863.41;1813075;78;21253;-54
2021/03/12 04:23:46;;;;;;;21.55;8.63;;;;;;;-3.70;66.37;98896.66;1812935;79;21095;-54
2021/03/12 04:26:15;;;;;;;19.67;8.70;;;;;;;-3.73;66.46;98909.08;1812841;78;21112;-55
2021/03/12 04:28:43;;;;;;;17.05;9.90;;;;;;;-3.76;66.50;98893.36;1812736;78;21199;-57
2021/03/12 04:31:12;;;;;;;15.83;8.20;;;;;;;-3.81;66.50;98841.77;1812995;78;21225;-58
2021/03/12 04:33:42;;;;;;;18.52;9.25;;;;;;;-3.79;66.46;98891.91;1812792;78;21143;-59
2021/03/12 04:36:11;;;;;;;17.20;8.90;;;;;;;-3.80;66.63;98898.96;1812756;79;21104;-57
2021/03/12 04:38:42;;;;;;;19.75;9.43;;;;;;;-3.84;66.78;98821.40;1813127;79;21495;-57
2021/03/12 04:41:13;;;;;;;18.50;9.80;;;;;;;-3.83;66.53;98841.17;1801767;78;21139;-59
2021/03/12 04:43:42;;;;;;;19.45;11.28;;;;;;;-3.87;66.59;98909.41;1812696;79;21289;-55
2021/03/12 04:46:12;;;;;;;19.00;9.63;;;;;;;-3.91;66.93;98921.73;1812810;78;21143;-56
2021/03/12 04:48:42;;;;;;;16.52;9.30;;;;;;;-3.97;67.04;98947.38;1812708;78;21104;-58
2021/03/12 04:51:13;;;;;;;18.80;9.65;;;;;;;-3.96;67.23;98844.54;1801643;79;21162;-59
2021/03/12 04:53:42;;;;;;;17.48;9.83;;;;;;;-3.95;67.21;98923.16;1813013;79;21266;-57
2021/03/12 04:56:11;;;;;;;20.17;10.30;;;;;;;-3.95;67.20;98842.50;1813134;79;21648;-57
2021/03/12 04:58:41;;;;;;;18.90;11.05;;;;;;;-3.95;67.29;98863.92;1812981;79;21166;-60
2021/03/12 05:01:10;;;;;;;17.70;8.90;;;;;;;-3.93;67.32;98854.81;1812784;79;21167;-56
2021/03/12 05:03:40;;;;;;;22.98;9.30;;;;;;;-3.94;67.35;98847.65;1821801;78;21299;-58
2021/03/12 05:06:11;;;;;;;28.05;10.05;;;;;;;-3.94;67.27;98830.00;1827162;78;21304;-59
2021/03/12 05:08:43;;;;;;;22.00;11.28;;;;;;;-3.92;67.33;98872.94;1826152;78;21127;-55
2021/03/12 05:11:14;;;;;;;20.90;9.70;;;;;;;-3.90;67.39;98838.62;1826575;78;21196;-57
2021/03/12 05:13:51;;;;;;;23.42;9.18;;;;;;;-3.89;67.28;98841.66;1826620;78;21134;-55
2021/03/12 05:16:19;;;;;;;20.75;10.28;;;;;;;-3.93;67.34;98914.05;1808787;77;21240;-55
2021/03/12 05:18:49;;;;;;;22.32;10.40;;;;;;;-3.99;67.65;98877.11;1794435;78;21129;-55
2021/03/12 05:21:17;;;;;;;20.08;9.40;;;;;;;-4.00;67.69;98901.81;1810879;78;21141;-59
2021/03/12 05:23:46;;;;;;;23.30;10.70;;;;;;;-3.98;67.71;98910.35;1812488;78;21316;-60
2021/03/12 05:26:14;;;;;;;20.30;10.58;;;;;;;-3.99;67.80;98880.89;1809760;78;21140;-58
2021/03/12 05:28:42;;;;;;;20.23;10.05;;;;;;;-4.01;67.76;98863.13;1810158;78;21277;-60
2021/03/12 05:31:09;;;;;;;20.48;10.00;;;;;;;-4.01;67.86;98816.51;1808898;78;21116;-55
2021/03/12 05:33:38;;;;;;;22.93;10.68;;;;;;;-4.00;67.89;98842.58;1810744;77;21165;-54
2021/03/12 05:36:07;;;;;;;24.10;10.82;;;;;;;-4.01;67.89;98854.31;1811971;78;21118;-55
2021/03/12 05:38:35;;;;;;;20.02;10.25;;;;;;;-4.01;67.95;98845.89;1799182;78;21290;-56
2021/03/12 05:41:04;;;;;;;21.27;10.48;;;;;;;-3.99;67.68;98747.31;1788769;78;21145;-59
2021/03/12 05:43:34;;;;;;;25.08;10.72;;;;;;;-3.94;67.65;98869.08;1813472;78;21258;-56
2021/03/12 05:46:02;;;;;;;19.85;10.72;;;;;;;-3.94;67.56;98843.87;1809579;78;21242;-55
2021/03/12 05:48:32;;;;;;;31.35;10.70;;;;;;;-3.89;67.59;98863.44;1796700;78;21559;-59
2021/03/12 05:51:01;;;;;;;23.42;11.22;;;;;;;-3.90;67.45;98790.73;1794557;78;21164;-56
2021/03/12 05:53:30;;;;;;;43.50;11.22;;;;;;;-3.86;67.30;98833.42;1794811;78;21300;-55
2021/03/12 05:56:00;;;;;;;24.67;10.65;;;;;;;-3.86;67.40;98850.67;1794649;80;21109;-54
2021/03/12 05:58:30;;;;;;;23.02;10.98;;;;;;;-3.83;67.43;98854.64;1775395;80;21554;-56
2021/03/12 06:00:59;;;;;;;21.33;10.18;;;;;;;-3.80;67.34;98806.94;1794603;80;21148;-61
2021/03/12 06:03:27;;;;;;;23.57;10.80;;;;;;;-3.70;67.10;98865.14;1788821;80;21228;-60
2021/03/12 06:05:55;;;;;;;26.10;11.50;;;;;;;-3.70;66.60;98841.19;1780800;79;21345;-59
2021/03/12 06:08:24;;;;;;;19.73;10.72;;;;;;;-3.77;66.72;98856.29;1780750;80;21168;-59
2021/03/12 06:10:55;;;;;;;22.32;11.20;;;;;;;-3.75;66.64;98796.77;1780815;80;21566;-57
2021/03/12 06:13:25;;;;;;;21.68;11.33;;;;;;;-3.72;66.61;98798.20;1785252;79;21594;-58
2021/03/12 06:15:55;;;;;;;26.33;12.45;;;;;;;-3.61;66.28;98866.11;1777419;80;21271;-62
2021/03/12 06:18:25;;;;;;;25.15;10.60;;;;;;;-3.58;66.06;98731.41;1780996;79;21644;-63
2021/03/12 06:20:55;;;;;;;21.87;10.68;;;;;;;-3.43;65.45;98712.17;1780301;80;21160;-61
2021/03/12 06:23:38;;;;;;;26.48;11.70;;;;;;;-3.37;64.97;98839.95;1782591;79;21261;-64
2021/03/12 06:26:10;;;;;;;31.33;11.25;;;;;;;-3.48;65.38;98823.66;1809235;79;21138;-64
2021/03/12 06:28:43;;;;;;;26.70;10.72;;;;;;;-3.50;65.20;98803.38;1812478;78;21202;-61
2021/03/12 06:31:30;;;;;;;20.82;10.65;;;;;;;-3.50;65.36;98679.38;1870598;76;22145;-65
2021/03/12 06:34:17;;;;;;;25.55;12.15;;;;;;;-3.58;65.55;98777.67;1760315;81;21276;-63
2021/03/12 06:36:57;;;;;;;27.62;12.50;;;;;;;-3.56;65.75;98810.53;1774112;81;21127;-61
2021/03/12 06:39:40;;;;;;;20.97;10.78;;;;;;;-3.57;65.69;98745.35;1759552;81;21278;-62
2021/03/12 06:42:15;;;;;;;27.70;11.65;;;;;;;-3.52;65.63;98809.97;1760899;80;21230;-64
2021/03/12 06:44:45;;;;;;;24.95;10.88;;;;;;;-3.44;65.39;98773.87;1759678;81;21244;-64
2021/03/12 06:47:23;;;;;;;30.95;12.50;;;;;;;-3.44;65.37;98754.56;1775092;81;21162;-62
2021/03/12 06:49:59;;;;;;;24.18;12.03;;;;;;;-3.38;65.24;98752.44;1758581;81;21352;-64
2021/03/12 06:52:36;;;;;;;28.83;11.80;;;;;;;-3.25;64.67;98819.67;1775409;81;21194;-59
2021/03/12 06:55:07;;;;;;;19.12;10.53;;;;;;;-3.18;64.18;98792.78;1759635;81;21125;-64
2021/03/12 06:57:37;;;;;;;24.55;9.40;;;;;;;-3.13;63.79;98847.30;1776076;80;21108;-64
2021/03/12 07:00:15;;;;;;;25.52;11.05;;;;;;;-3.17;63.82;98805.01;1742681;81;21598;-61
2021/03/12 07:02:45;;;;;;;27.15;10.38;;;;;;;-3.17;63.88;98775.98;1756461;80;21145;-61
2021/03/12 07:05:19;;;;;;;23.32;10.53;;;;;;;-3.17;63.82;98768.41;1744662;81;21608;-62
2021/03/12 07:07:49;;;;;;;19.48;9.50;;;;;;;-3.14;63.90;98658.81;1760308;81;21553;-61
2021/03/12 07:10:26;;;;;;;30.40;10.32;;;;;;;-3.04;63.69;98816.34;1767667;80;21151;-63
2021/03/12 07:12:57;;;;;;;24.82;10.18;;;;;;;-3.09;63.84;98752.95;1720248;81;21294;-65
2021/03/12 07:15:27;;;;;;;21.07;10.75;;;;;;;-3.03;63.73;98785.25;1751853;81;21246;-61
2021/03/12 07:17:59;;;;;;;18.95;10.13;;;;;;;-3.08;63.74;98766.43;1752721;80;21344;-61
2021/03/12 07:20:28;;;;;;;16.67;9.50;;;;;;;-3.06;63.69;98758.57;1751590;82;21306;-59
2021/03/12 07:23:01;;;;;;;17.67;10.03;;;;;;;-3.12;63.56;98692.59;1751870;81;21707;-60
2021/03/12 07:25:30;;;;;;;32.05;11.40;;;;;;;-3.13;63.63;98698.40;1752269;82;21312;-64
2021/03/12 07:28:02;;;;;;;15.35;8.40;;;;;;;-3.14;63.80;98755.98;1751665;82;21529;-64
2021/03/12 07:30:48;;;;;;;21.23;11.35;;;;;;;-3.21;63.91;98772.38;1873835;76;27952;-62
2021/03/12 07:33:22;;;;;;;21.90;11.08;;;;;;;-3.32;64.27;98699.81;1861109;77;21142;-62
2021/03/12 07:35:55;;;;;;;21.07;11.30;;;;;;;-3.31;64.32;98740.69;1761099;80;21572;-62
2021/03/12 07:38:26;;;;;;;24.40;10.48;;;;;;;-3.31;64.41;98801.61;1789423;80;21219;-65
2021/03/12 07:41:06;;;;;;;17.87;10.10;;;;;;;-3.22;64.42;98787.05;1808089;79;21581;-65
2021/03/12 07:43:39;;;;;;;21.62;9.43;;;;;;;-3.19;64.37;98792.67;1789779;80;21114;-63
2021/03/12 07:46:14;;;;;;;23.55;10.43;;;;;;;-3.15;64.27;98732.39;1786175;80;21153;-63
2021/03/12 07:48:44;;;;;;;17.00;8.33;;;;;;;-3.15;64.31;98734.92;1789731;80;21181;-63
2021/03/12 07:51:16;;;;;;;18.27;9.13;;;;;;;-3.08;64.31;98715.95;1788740;80;21687;-63
2021/03/12 07:53:54;;;;;;;23.32;10.40;;;;;;;-3.00;64.13;98684.49;1790638;80;21114;-63
2021/03/12 07:56:53;;;;;;;21.93;8.95;;;;;;;-2.98;64.07;98690.87;1823205;78;21209;-65
2021/03/12 07:59:50;;;;;;;16.67;8.85;;;;;;;-2.85;63.77;98681.97;1791459;80;21165;-63
2021/03/12 08:02:58;;;;;;;18.90;9.38;;;;;;;-2.75;63.31;98663.19;1791749;80;21166;-62
2021/03/12 08:05:45;;;;;;;23.57;9.68;;;;;;;-2.63;63.00;98731.70;1791446;80;21169;-62
2021/03/12 08:08:39;;;;;;;20.25;8.38;;;;;;;-2.59;62.83;98771.06;1706808;80;21584;-61
2021/03/12 08:11:38;;;;;;;19.07;8.88;;;;;;;-2.64;62.96;98705.98;1789595;80;21585;-67
2021/03/12 08:14:18;;;;;;;20.00;8.33;;;;;;;-2.69;63.43;98709.89;1784403;80;21798;-62
2021/03/12 08:17:05;;;;;;;21.87;9.73;;;;;;;-2.67;63.31;98755.42;1791207;80;21149;-62
2021/03/12 08:19:40;;;;;;;18.55;9.20;;;;;;;-2.71;63.34;98706.80;1790521;80;21264;-63
2021/03/12 08:22:33;;;;;;;18.02;8.48;;;;;;;-2.64;63.16;98669.36;1789847;80;21170;-65
2021/03/12 08:25:09;;;;;;;21.62;9.05;;;;;;;-2.70;63.27;98740.09;1791053;80;21150;-61
2021/03/12 08:27:50;;;;;;;26.93;8.88;;;;;;;-2.72;63.39;98773.22;1783847;80;21174;-65
2021/03/12 08:30:37;;;;;;;17.20;8.20;;;;;;;-2.71;63.47;98725.73;1777462;80;21170;-61
2021/03/12 08:33:10;;;;;;;17.35;8.23;;;;;;;-2.62;63.50;98721.23;1846224;77;21699;-63
2021/03/12 08:35:43;;;;;;;20.45;7.90;;;;;;;-2.55;63.24;98723.31;1837081;77;21123;-62
2021/03/12 08:38:35;;;;;;;16.62;7.62;;;;;;;-2.56;63.26;98655.04;1774936;81;21604;-64
2021/03/12 08:41:17;;;;;;;17.85;9.05;;;;;;;-2.51;63.28;98724.38;1806217;79;21195;-59
2021/03/12 08:43:53;;;;;;;18.32;9.10;;;;;;;-2.50;63.35;98732.43;1840037;78;21274;-61
2021/03/12 08:46:40;;;;;;;19.45;8.95;;;;;;;-2.53;63.45;98733.13;1774426;81;21134;-62
2021/03/12 08:49:10;;;;;;;17.48;8.98;;;;;;;-2.64;63.86;98692.48;1846077;77;21143;-60
2021/03/12 08:51:40;;;;;;;15.28;8.33;;;;;;;-2.57;63.91;98735.01;1806355;79;21108;-63
2021/03/12 08:54:16;;;;;;;15.98;8.68;;;;;;;-2.64;64.11;98631.86;1845385;77;21150;-62
2021/03/12 08:56:45;;;;;;;17.15;8.83;;;;;;;-2.64;64.06;98647.02;1773878;80;21664;-63
2021/03/12 08:59:14;;;;;;;14.87;7.22;;;;;;;-2.67;64.35;98645.19;1806093;79;21108;-64
2021/03/12 09:01:49;;;;;;;18.90;8.15;;;;;;;-2.68;64.53;98720.45;1844241;77;21107;-61
2021/03/12 09:04:30;;;;;;;15.13;8.05;;;;;;;-2.64;64.54;98698.41;1805525;79;21099;-61
2021/03/12 09:07:13;;;;;;;26.52;9.40;;;;;;;-2.66;64.68;98709.20;1773219;80;21145;-63
2021/03/12 09:09:46;;;;;;;25.40;8.60;;;;;;;-2.70;64.91;98645.39;1844927;77;21138;-60
2021/03/12 09:12:30;;;;;;;25.70;8.70;;;;;;;-2.58;64.79;98652.41;1747219;81;21187;-62
2021/03/12 09:15:00;;;;;;;16.82;8.85;;;;;;;-2.49;64.55;98674.42;1823175;78;21530;-62
2021/03/12 09:17:37;;;;;;;23.38;8.53;;;;;;;-2.49;64.68;98683.66;1774321;80;21163;-60
2021/03/12 09:20:09;;;;;;;23.52;8.60;;;;;;;-2.52;64.81;98642.67;1844272;77;21705;-63
2021/03/12 09:22:39;;;;;;;17.35;7.55;;;;;;;-2.49;64.93;98640.31;1774595;81;21282;-63
2021/03/12 09:25:09;;;;;;;17.57;8.50;;;;;;;-2.48;64.90;98629.81;1806112;79;21313;-62
2021/03/12 09:28:10;;;;;;;15.00;8.28;;;;;;;-2.48;64.94;98564.98;1772783;80;21731;-64
2021/03/12 09:30:46;;;;;;;15.30;8.43;;;;;;;-2.48;65.13;98599.09;1845526;77;21166;-59
2021/03/12 09:33:37;;;;;;;19.85;7.80;;;;;;;-2.46;65.13;98640.48;1773363;81;21127;-65
2021/03/12 09:36:26;;;;;;;;;;;;;;;-2.47;65.40;98663.12;1847911;77;21146;-62
2021/03/12 09:39:00;;;;;;;28.60;7.95;;;;;;;-2.50;65.75;98621.27;1843596;78;20135;-65
2021/03/12 09:41:31;;;;;;;14.05;7.37;;;;;;;-2.47;65.77;98603.38;1764800;81;21146;-62
2021/03/12 09:44:15;;;;;;;15.93;8.73;;;;;;;-2.46;65.90;98663.22;1845900;77;21119;-60
2021/03/12 09:46:52;;;;;;;17.57;8.00;;;;;;;-2.41;66.09;98632.77;1773432;81;21593;-60
2021/03/12 09:49:30;;;;;;;22.02;8.85;;;;;;;-2.41;66.08;98651.72;1844911;77;21258;-62
2021/03/12 09:52:03;;;;;;;15.53;8.80;;;;;;;-2.46;66.38;98587.42;1805918;79;21351;-61
2021/03/12 09:54:31;;;;;;;;;;;;;;;-2.35;66.28;98550.52;1755101;81;21155;-64
2021/03/12 09:57:00;;;;;;;20.80;9.35;;;;;;;-2.27;66.31;98641.51;1774276;80;20441;-63
2021/03/12 09:59:32;;;;;;;16.60;8.18;;;;;;;-2.28;66.53;98630.94;1752849;81;21280;-66
2021/03/12 10:02:14;;;;;;;22.32;9.45;;;;;;;-2.20;66.51;98520.61;1742914;81;21136;-62
2021/03/12 10:05:02;;;;;;;17.87;9.05;;;;;;;-2.30;67.30;98611.02;1760661;81;21170;-62
2021/03/12 10:07:52;;;;;;;21.00;8.93;;;;;;;-2.31;67.80;98595.39;1774459;81;21119;-62
2021/03/12 10:10:26;;;;;;;22.03;10.07;;;;;;;-2.32;68.49;98661.86;1845000;77;21730;-63
2021/03/12 10:13:00;;;;;;;23.32;9.18;;;;;;;-2.36;69.53;98625.85;1774364;80;21272;-61
2021/03/12 10:15:37;;;;;;;23.52;9.43;;;;;;;-2.36;70.54;98633.44;1846224;77;21269;-64
2021/03/12 10:18:21;;;;;;;21.80;9.08;;;;;;;-2.28;70.34;98609.45;1773116;81;21308;-64
2021/03/12 10:20:52;;;;;;;16.85;8.65;;;;;;;-2.26;70.62;98593.98;1772424;81;21565;-64
2021/03/12 10:23:20;;;;;;;19.98;10.15;;;;;;;-2.32;72.07;98570.89;1846113;78;21143;-62
2021/03/12 10:25:49;;;;;;;16.67;8.50;;;;;;;-2.30;72.99;98592.06;1845842;78;21134;-63
2021/03/12 10:28:23;;;;;;;19.23;8.55;;;;;;;-2.27;73.29;98499.98;1806054;79;21146;-61
2021/03/12 10:30:59;;;;;;;18.75;8.78;;;;;;;-2.33;74.60;98587.71;1851407;77;21272;-61
2021/03/12 10:33:31;;;;;;;20.97;9.18;;;;;;;-2.33;75.37;98578.00;1782565;80;21293;-64
2021/03/12 10:36:05;;;;;;;21.17;9.93;;;;;;;-2.43;76.68;98561.06;1854635;77;21110;-63
2021/03/12 10:38:35;;;;;;;22.37;10.43;;;;;;;-2.49;77.77;98534.20;1782604;80;21328;-58
2021/03/12 10:41:24;;;;;;;25.27;10.75;;;;;;;-2.60;79.32;98595.01;1854804;77;21122;-65
2021/03/12 10:44:01;;;;;;;18.87;10.00;;;;;;;-2.70;80.37;98521.64;1855011;77;21694;-60
2021/03/12 10:46:34;;;;;;;20.10;9.48;;;;;;;-2.76;81.32;98584.04;1854921;77;21103;-60
2021/03/12 10:49:02;;;;;;;18.02;10.05;;;;;;;-2.87;81.92;98606.16;1855099;77;21134;-60
2021/03/12 10:51:39;;;;;;;18.60;9.98;;;;;;;-2.91;83.64;98553.73;1855085;77;21550;-63
2021/03/12 10:54:08;;;;;;;23.92;11.30;;;;;;;-2.85;83.93;98546.53;1854453;77;21130;-61
2021/03/12 10:56:46;;;;;;;19.55;10.88;;;;;;;-2.84;83.79;98581.08;1854690;77;21107;-59
2021/03/12 10:59:15;;;;;;;18.82;9.80;;;;;;;-2.85;84.84;98593.23;1782462;80;21585;-62
2021/03/12 11:01:46;;;;;;;19.32;10.30;;;;;;;-2.92;85.70;98583.56;1854808;77;21275;-62
2021/03/12 11:04:16;;;;;;;19.62;9.68;;;;;;;-2.96;86.31;98601.83;1782486;80;21227;-61
2021/03/12 11:06:44;;;;;;;25.40;11.45;;;;;;;-2.98;86.77;98536.49;1854902;77;21260;-64
2021/03/12 11:09:13;;;;;;;20.60;10.88;;;;;;;-2.96;87.14;98555.13;1854894;77;21117;-63
2021/03/12 11:11:44;;;;;;;24.27;11.78;;;;;;;-2.99;87.92;98602.05;1854892;77;21139;-64
2021/03/12 11:14:12;;;;;;;22.58;11.08;;;;;;;-2.98;88.48;98555.82;1854909;77;21146;-63
2021/03/12 11:16:39;;;;;;;22.60;10.95;;;;;;;-2.91;88.45;98576.85;1854704;77;21106;-63
2021/03/12 11:19:09;;;;;;;24.90;11.95;;;;;;;-2.90;88.72;98608.52;1854932;77;21292;-61
2021/03/12 11:21:37;;;;;;;29.87;12.43;;;;;;;-2.89;88.93;98571.51;1854962;77;21102;-65
2021/03/12 11:24:07;;;;;;;19.12;10.00;;;;;;;-2.84;89.41;98558.36;1854725;77;21337;-65
2021/03/12 11:26:35;;;;;;;21.85;10.58;;;;;;;-2.79;88.84;98536.30;1854866;77;21103;-62
2021/03/12 11:29:03;;;;;;;20.52;9.95;;;;;;;-2.84;88.87;98559.62;1782556;80;21273;-63
2021/03/12 11:31:31;;;;;;;21.73;12.33;;;;;;;-2.78;89.49;98551.91;1854871;77;21292;-58
2021/03/12 11:33:59;;;;;;;21.27;11.73;;;;;;;-2.73;89.40;98532.84;1854698;77;21150;-61
2021/03/12 11:36:27;;;;;;;22.93;10.95;;;;;;;-2.63;89.17;98493.41;1854680;77;21130;-63
2021/03/12 11:38:54;;;;;;;19.92;11.78;;;;;;;-2.64;88.84;98542.20;1854824;77;21122;-60
2021/03/12 11:41:22;;;;;;;25.48;12.07;;;;;;;-2.79;89.04;98519.88;1854975;77;21134;-62
2021/03/12 11:43:51;;;;;;;19.10;10.70;;;;;;;-2.72;89.27;98501.73;1854694;77;21201;-61
2021/03/12 11:46:18;;;;;;;23.70;11.55;;;;;;;-2.75;89.38;98530.61;1854654;77;21178;-62
2021/03/12 11:48:48;;;;;;;20.65;11.08;;;;;;;-2.76;89.30;98497.31;1854641;77;21103;-64
2021/03/12 11:51:17;;;;;;;22.15;11.43;;;;;;;-2.71;89.67;98450.45;1854967;77;21162;-64